createdAt,value
2023-05-14T01:04:04.692Z,66.23
2023-05-14T01:07:00.709Z,66.03
2023-05-14T01:09:47.830Z,66.16
2023-05-14T01:12:24.916Z,66.29
2023-05-14T01:15:01.839Z,66.28
2023-05-14T01:17:33.360Z,66.24
2023-05-14T01:20:01.149Z,66.49
2023-05-14T01:22:28.322Z,66.39
2023-05-14T01:24:55.539Z,66.41
2023-05-14T01:27:44.570Z,66.37
2023-05-14T01:30:18.996Z,66.58
2023-05-14T01:32:51.806Z,66.69
2023-05-14T01:35:23.259Z,66.84
2023-05-14T01:37:51.275Z,66.94
2023-05-14T01:40:19.950Z,67.13
2023-05-14T01:42:47.628Z,67.28
2023-05-14T01:45:15.587Z,67.38
2023-05-14T01:47:42.970Z,67.38
2023-05-14T01:50:11.103Z,67.44
2023-05-14T01:52:39.098Z,67.52
2023-05-14T01:55:07.134Z,67.32
2023-05-14T01:57:34.623Z,67.42
2023-05-14T02:00:02.105Z,67.56
2023-05-14T02:02:29.289Z,67.77
2023-05-14T02:04:56.997Z,68.32
2023-05-14T02:07:24.296Z,68.19
2023-05-14T02:09:51.557Z,68.47
2023-05-14T02:12:18.812Z,68.61
2023-05-14T02:14:46.591Z,68.83
2023-05-14T02:17:17.006Z,69.32
2023-05-14T02:19:45.199Z,69.29
2023-05-14T02:22:13.450Z,69.67
2023-05-14T02:24:41.671Z,69.63
2023-05-14T02:27:09.123Z,69.64
2023-05-14T02:29:36.733Z,69.74
2023-05-14T02:32:04.340Z,69.29
2023-05-14T02:34:33.997Z,69.14
2023-05-14T02:37:01.502Z,69.38
2023-05-14T02:39:28.811Z,69.23
2023-05-14T02:41:56.138Z,69.23
2023-05-14T02:44:23.476Z,69.23
2023-05-14T02:46:50.809Z,69.15
2023-05-14T02:49:18.203Z,69.04
2023-05-14T02:51:45.561Z,69.00
2023-05-14T02:54:12.871Z,68.95
2023-05-14T02:56:40.173Z,69.74
2023-05-14T02:59:07.622Z,69.85
2023-05-14T03:01:35.554Z,70.02
2023-05-14T03:04:03.442Z,70.26
2023-05-14T03:06:32.415Z,70.24
2023-05-14T03:08:59.791Z,69.97
2023-05-14T03:11:28.549Z,69.81
2023-05-14T03:13:56.031Z,70.17
2023-05-14T03:16:24.973Z,69.68
2023-05-14T03:18:53.090Z,69.69
2023-05-14T03:21:20.788Z,69.93
2023-05-14T03:23:48.076Z,69.79
2023-05-14T03:26:15.307Z,69.87
2023-05-14T03:28:42.658Z,69.69
2023-05-14T03:31:10.074Z,69.69
2023-05-14T03:33:38.771Z,69.64
2023-05-14T03:36:06.856Z,69.77
2023-05-14T03:38:34.198Z,69.87
2023-05-14T03:41:02.633Z,70.11
2023-05-14T03:43:31.010Z,69.96
2023-05-14T03:46:00.133Z,69.84
2023-05-14T03:48:28.862Z,70.02
2023-05-14T03:50:57.306Z,70.41
2023-05-14T03:53:24.679Z,70.58
2023-05-14T03:55:52.206Z,70.53
2023-05-14T03:58:19.879Z,70.77
2023-05-14T04:00:47.458Z,70.47
2023-05-14T04:03:15.026Z,70.69
2023-05-14T04:05:42.684Z,70.61
2023-05-14T04:08:10.063Z,70.39
2023-05-14T04:10:37.882Z,70.40
2023-05-14T04:13:05.467Z,70.42
2023-05-14T04:15:33.866Z,70.45
2023-05-14T04:18:02.124Z,70.39
2023-05-14T04:20:29.675Z,70.29
2023-05-14T04:22:56.938Z,70.31
2023-05-14T04:25:24.705Z,70.42
2023-05-14T04:27:52.484Z,70.15
2023-05-14T04:30:20.118Z,70.23
2023-05-14T04:32:48.924Z,70.15
2023-05-14T04:35:16.481Z,69.94
2023-05-14T04:37:43.848Z,69.92
2023-05-14T04:40:13.011Z,69.82
2023-05-14T04:42:40.331Z,69.72
2023-05-14T04:45:09.152Z,69.64
2023-05-14T04:47:36.587Z,69.11
2023-05-14T04:50:04.692Z,69.25
2023-05-14T04:52:31.984Z,68.84
2023-05-14T04:54:59.811Z,68.10
2023-05-14T04:57:27.188Z,68.01
2023-05-14T04:59:54.610Z,67.83
2023-05-14T05:02:22.250Z,67.48
2023-05-14T05:04:50.018Z,67.62
2023-05-14T05:07:17.454Z,67.38
2023-05-14T05:09:45.552Z,67.43
2023-05-14T05:12:13.336Z,67.52
2023-05-14T05:14:40.477Z,67.29
2023-05-14T05:17:07.664Z,67.44
2023-05-14T05:19:43.129Z,67.35
2023-05-14T05:22:12.169Z,67.56
2023-05-14T05:24:40.154Z,67.32
2023-05-14T05:27:07.512Z,67.30
2023-05-14T05:29:35.798Z,67.39
2023-05-14T05:32:03.216Z,67.31
2023-05-14T05:34:30.464Z,67.13
2023-05-14T05:36:58.168Z,66.99
2023-05-14T05:39:25.465Z,66.88
2023-05-14T05:41:52.923Z,66.60
2023-05-14T05:44:20.821Z,66.79
2023-05-14T05:46:48.251Z,66.53
2023-05-14T05:49:15.471Z,65.64
2023-05-14T05:51:43.867Z,65.71
2023-05-14T05:54:13.379Z,64.64
2023-05-14T05:56:40.821Z,65.40
2023-05-14T05:59:08.506Z,65.30
2023-05-14T06:01:35.935Z,64.70
2023-05-14T06:04:04.972Z,63.48
2023-05-14T06:06:33.915Z,63.63
2023-05-14T06:09:02.413Z,62.78
2023-05-14T06:11:29.905Z,62.82
2023-05-14T06:13:58.069Z,62.96
2023-05-14T06:16:25.308Z,62.40
2023-05-14T06:18:56.790Z,62.45
2023-05-14T06:21:24.307Z,62.26
2023-05-14T06:23:51.664Z,62.03
2023-05-14T06:26:19.024Z,62.05
2023-05-14T06:28:46.285Z,61.78
2023-05-14T06:31:14.334Z,61.38
2023-05-14T06:33:41.647Z,61.30
2023-05-14T06:36:09.348Z,60.88
2023-05-14T06:38:36.760Z,60.71
2023-05-14T06:41:04.003Z,59.02
2023-05-14T06:43:31.764Z,58.96
2023-05-14T06:45:58.978Z,59.21
2023-05-14T06:48:28.162Z,58.89
2023-05-14T06:50:55.891Z,59.58
2023-05-14T06:53:23.116Z,58.75
2023-05-14T06:55:51.293Z,58.97
2023-05-14T06:58:18.662Z,58.28
2023-05-14T07:00:46.085Z,57.84
2023-05-14T07:03:13.313Z,57.82
2023-05-14T07:05:42.290Z,57.82
2023-05-14T07:08:11.822Z,56.94
2023-05-14T07:10:39.721Z,57.01
2023-05-14T07:13:07.178Z,56.41
2023-05-14T07:15:34.969Z,55.85
2023-05-14T07:18:02.449Z,56.50
2023-05-14T07:20:30.795Z,56.27
2023-05-14T07:22:58.244Z,55.73
2023-05-14T07:25:25.465Z,54.48
2023-05-14T07:27:52.754Z,53.96
2023-05-14T07:30:20.707Z,54.37
2023-05-14T07:32:48.125Z,54.61
2023-05-14T07:35:15.322Z,54.10
2023-05-14T07:37:44.047Z,54.02
2023-05-14T07:40:11.462Z,54.09
2023-05-14T07:42:39.820Z,53.75
2023-05-14T07:45:09.018Z,53.30
2023-05-14T07:47:36.414Z,52.35
2023-05-14T07:50:04.043Z,52.80
2023-05-14T07:52:31.550Z,52.57
2023-05-14T07:55:01.787Z,52.55
2023-05-14T07:57:29.082Z,52.59
2023-05-14T07:59:57.356Z,51.76
2023-05-14T08:02:24.701Z,51.16
2023-05-14T08:04:52.117Z,51.79
2023-05-14T08:07:20.067Z,51.32
2023-05-14T08:09:47.305Z,49.96
2023-05-14T08:12:14.813Z,50.14
2023-05-14T08:14:42.665Z,50.43
2023-05-14T08:17:10.086Z,49.88
2023-05-14T08:19:37.407Z,49.80
2023-05-14T08:22:04.870Z,49.57
2023-05-14T08:24:32.267Z,49.30
2023-05-14T08:26:59.553Z,48.41
2023-05-14T08:29:26.973Z,48.06
2023-05-14T08:31:54.422Z,47.79
2023-05-14T08:34:21.776Z,46.47
2023-05-14T08:36:49.436Z,46.05
2023-05-14T08:39:16.800Z,46.56
2023-05-14T08:41:45.385Z,45.94
2023-05-14T08:44:20.084Z,46.53
2023-05-14T08:46:50.202Z,45.74
2023-05-14T08:49:42.311Z,45.92
2023-05-14T08:52:11.033Z,46.29
2023-05-14T08:54:38.875Z,46.33
2023-05-14T08:57:10.089Z,45.62
2023-05-14T08:59:38.241Z,45.29
2023-05-14T09:02:07.153Z,45.58
2023-05-14T09:04:35.444Z,44.35
2023-05-14T09:07:04.468Z,44.23
2023-05-14T09:09:32.275Z,43.09
2023-05-14T09:11:59.993Z,43.00
2023-05-14T09:14:27.344Z,42.96
2023-05-14T09:16:55.330Z,42.46
2023-05-14T09:19:22.774Z,42.02
2023-05-14T09:21:50.976Z,41.45
2023-05-14T09:24:26.282Z,38.92
2023-05-14T09:26:58.712Z,39.51
2023-05-14T09:29:26.872Z,38.61
2023-05-14T09:31:55.137Z,39.75
2023-05-14T09:34:34.649Z,38.58
2023-05-14T09:37:07.296Z,38.34
2023-05-14T09:39:39.097Z,38.61
2023-05-14T09:42:06.747Z,39.17
2023-05-14T09:44:34.132Z,39.31
2023-05-14T09:47:01.758Z,39.43
2023-05-14T09:49:29.009Z,39.05
2023-05-14T09:51:58.293Z,37.68
2023-05-14T09:54:27.670Z,38.59
2023-05-14T09:56:55.833Z,38.68
2023-05-14T09:59:23.378Z,38.70
2023-05-14T10:01:51.971Z,38.08
2023-05-14T10:04:20.161Z,37.68
2023-05-14T10:06:52.404Z,38.10
2023-05-14T10:09:23.947Z,38.32
2023-05-14T10:11:54.574Z,38.74
2023-05-14T10:14:43.769Z,37.28
2023-05-14T10:17:18.899Z,37.84
2023-05-14T10:19:57.842Z,38.39
2023-05-14T10:22:31.707Z,38.33
2023-05-14T10:24:59.805Z,36.73
2023-05-14T10:27:27.357Z,36.47
2023-05-14T10:29:56.398Z,37.36
2023-05-14T10:32:26.170Z,37.57
2023-05-14T10:34:54.165Z,36.91
2023-05-14T10:37:26.447Z,37.45
2023-05-14T10:39:55.583Z,36.93
2023-05-14T10:42:36.605Z,37.07
2023-05-14T10:45:09.247Z,37.97
2023-05-14T10:47:42.447Z,37.10
2023-05-14T10:50:12.372Z,38.11
2023-05-14T10:52:45.999Z,38.50
2023-05-14T10:55:15.618Z,38.07
2023-05-14T10:57:46.677Z,37.77
2023-05-14T11:00:15.161Z,37.94
2023-05-14T11:02:45.120Z,38.09
2023-05-14T11:05:16.262Z,37.55
2023-05-14T11:07:49.500Z,37.10
2023-05-14T11:10:22.676Z,37.38
2023-05-14T11:12:51.701Z,37.94
2023-05-14T11:15:24.113Z,38.46
2023-05-14T11:17:53.314Z,37.85
2023-05-14T11:20:22.793Z,36.76
2023-05-14T11:22:52.048Z,38.14
2023-05-14T11:25:19.426Z,38.13
2023-05-14T11:27:48.963Z,38.12
2023-05-14T11:30:18.509Z,38.30
2023-05-14T11:32:47.874Z,38.54
2023-05-14T11:35:15.954Z,38.97
2023-05-14T11:37:44.168Z,38.49
2023-05-14T11:40:19.286Z,38.70
2023-05-14T11:42:47.534Z,38.49
2023-05-14T11:45:26.012Z,38.52
2023-05-14T11:47:57.266Z,39.27
2023-05-14T11:50:24.870Z,39.01
2023-05-14T11:52:57.286Z,39.66
2023-05-14T11:55:24.876Z,39.77
2023-05-14T11:57:52.697Z,39.93
2023-05-14T12:00:22.420Z,40.35
2023-05-14T12:02:50.453Z,40.60
2023-05-14T12:05:17.954Z,40.31
2023-05-14T12:07:46.727Z,40.40
2023-05-14T12:10:14.312Z,40.67
2023-05-14T12:12:45.561Z,40.65
2023-05-14T12:15:14.375Z,40.86
2023-05-14T12:17:42.431Z,41.15
2023-05-14T12:20:11.802Z,41.10
2023-05-14T12:22:39.803Z,41.24
2023-05-14T12:25:15.735Z,40.95
2023-05-14T12:27:45.113Z,41.79
2023-05-14T12:32:53.230Z,40.46
2023-05-14T12:35:33.494Z,41.11
2023-05-14T12:38:00.909Z,41.38
2023-05-14T12:40:28.868Z,41.26
2023-05-14T12:42:56.875Z,41.13
2023-05-14T12:45:24.882Z,41.98
2023-05-14T12:47:52.613Z,41.47
2023-05-14T12:50:21.637Z,41.44
2023-05-14T12:52:49.953Z,41.39
2023-05-14T12:55:17.613Z,41.72
2023-05-14T12:57:45.094Z,41.81
2023-05-14T13:00:14.128Z,41.64
2023-05-14T13:02:43.627Z,41.35
2023-05-14T13:05:13.137Z,41.63
2023-05-14T13:07:40.679Z,42.20
2023-05-14T13:10:09.469Z,41.45
2023-05-14T13:12:41.757Z,41.06
2023-05-14T13:15:12.557Z,40.89
2023-05-14T13:17:42.341Z,40.62
2023-05-14T13:20:10.413Z,40.34
2023-05-14T13:22:38.928Z,40.32
2023-05-14T13:25:12.723Z,40.01
2023-05-14T13:27:55.308Z,40.25
2023-05-14T13:30:29.089Z,40.65
2023-05-14T13:32:57.292Z,40.57
2023-05-14T13:35:24.884Z,39.94
2023-05-14T13:37:52.726Z,39.77
2023-05-14T13:40:21.366Z,40.28
2023-05-14T13:43:00.913Z,40.60
2023-05-14T13:45:28.394Z,40.96
2023-05-14T13:47:57.240Z,41.01
2023-05-14T13:50:24.567Z,41.27
2023-05-14T13:52:52.777Z,41.46
2023-05-14T13:55:21.161Z,39.79
2023-05-14T13:57:48.453Z,40.01
2023-05-14T14:00:16.249Z,40.15
2023-05-14T14:02:43.574Z,40.30
2023-05-14T14:05:10.828Z,39.73
2023-05-14T14:07:44.197Z,40.39
2023-05-14T14:10:12.477Z,41.06
2023-05-14T14:12:40.162Z,40.91
2023-05-14T14:15:08.324Z,40.41
2023-05-14T14:17:35.708Z,40.78
2023-05-14T14:20:09.921Z,40.95
2023-05-14T14:22:37.738Z,40.61
2023-05-14T14:26:06.753Z,40.98
2023-05-14T14:28:42.087Z,40.79
2023-05-14T14:31:50.233Z,40.89
2023-05-14T14:34:59.620Z,40.99
2023-05-14T14:37:33.412Z,40.96
2023-05-14T14:40:21.686Z,40.63
2023-05-14T14:43:31.910Z,39.85
2023-05-14T14:47:19.084Z,40.36
2023-05-14T14:50:50.226Z,40.60
2023-05-14T14:54:34.255Z,40.67
2023-05-14T14:58:07.383Z,40.77
2023-05-14T15:01:56.533Z,40.87
2023-05-14T15:05:23.785Z,40.82
2023-05-14T15:08:53.348Z,41.43
2023-05-14T15:12:40.708Z,41.80
2023-05-14T15:16:10.085Z,41.66
2023-05-14T15:19:32.729Z,41.87
2023-05-14T15:22:11.959Z,41.80
2023-05-14T15:25:01.546Z,41.81
2023-05-14T15:28:28.953Z,41.70
2023-05-14T15:31:23.454Z,42.30
2023-05-14T15:34:50.303Z,42.46
2023-05-14T15:38:12.736Z,41.96
2023-05-14T15:41:50.801Z,42.24
2023-05-14T15:44:52.129Z,42.34
2023-05-14T15:48:19.491Z,42.46
2023-05-14T15:51:56.622Z,42.75
2023-05-14T15:55:27.782Z,42.77
2023-05-14T15:58:26.370Z,42.89
2023-05-14T16:01:58.696Z,42.83
2023-05-14T16:05:45.722Z,42.74
2023-05-14T16:09:17.208Z,43.12
2023-05-14T16:12:49.724Z,43.21
2023-05-14T16:16:36.995Z,43.33
2023-05-14T16:20:23.968Z,43.38
2023-05-14T16:23:51.828Z,43.65
2023-05-14T16:27:31.854Z,43.64
2023-05-14T16:30:49.488Z,43.94
2023-05-14T16:34:24.668Z,43.94
2023-05-14T16:37:52.674Z,44.07
2023-05-14T16:41:42.206Z,44.10
2023-05-14T16:45:09.181Z,44.21
2023-05-14T16:48:36.495Z,44.44
2023-05-14T16:52:04.889Z,44.61
2023-05-14T16:55:51.729Z,44.62
2023-05-14T16:59:18.695Z,44.68
2023-05-14T17:02:43.011Z,44.88
2023-05-14T17:06:25.910Z,44.88
2023-05-14T17:09:52.916Z,44.95
2023-05-14T17:13:40.111Z,45.22
2023-05-14T17:50:13.536Z,46.63
2023-05-14T17:52:42.684Z,46.71
2023-05-14T17:55:10.305Z,46.81
2023-05-14T17:57:38.107Z,46.93
2023-05-14T18:00:06.034Z,46.97
2023-05-14T18:02:33.494Z,47.25
2023-05-14T18:05:00.940Z,47.41
2023-05-14T18:07:28.517Z,47.63
2023-05-14T18:09:56.472Z,47.75
2023-05-14T18:12:26.004Z,48.10
2023-05-14T18:14:53.754Z,48.61
2023-05-14T18:17:21.364Z,49.28
2023-05-14T18:19:49.221Z,49.55
2023-05-14T18:22:16.756Z,49.95
2023-05-14T18:24:44.834Z,50.38
2023-05-14T18:27:12.530Z,50.58
2023-05-14T18:29:40.298Z,51.01
2023-05-14T18:32:07.915Z,51.46
2023-05-14T18:34:36.686Z,51.23
2023-05-14T18:37:04.190Z,51.91
2023-05-14T18:39:32.284Z,52.05
2023-05-14T18:41:59.703Z,52.18
2023-05-14T18:44:26.955Z,52.56
2023-05-14T18:46:56.333Z,53.36
2023-05-14T18:49:24.445Z,54.05
2023-05-14T18:51:51.962Z,54.63
2023-05-14T18:54:19.425Z,55.67
2023-05-14T18:56:47.753Z,55.88
2023-05-14T18:59:15.620Z,57.22
2023-05-14T19:01:42.963Z,57.62
2023-05-14T19:04:10.446Z,58.59
2023-05-14T19:06:40.718Z,59.71
2023-05-14T19:09:08.678Z,60.05
2023-05-14T19:11:36.087Z,60.62
2023-05-14T19:14:03.341Z,60.97
2023-05-14T19:16:30.655Z,61.36
2023-05-14T19:18:58.140Z,61.48
2023-05-14T19:21:25.496Z,62.08
2023-05-14T19:23:53.448Z,62.37
2023-05-14T19:26:21.999Z,62.73
2023-05-14T19:28:49.382Z,63.03
2023-05-14T19:31:16.702Z,63.33
2023-05-14T19:33:44.353Z,63.59
2023-05-14T19:36:12.237Z,63.76
2023-05-14T19:38:40.093Z,64.23
2023-05-14T19:41:07.316Z,64.47
2023-05-14T19:43:34.623Z,64.48
2023-05-14T19:46:02.739Z,64.83
2023-05-14T19:48:32.032Z,65.14
2023-05-14T19:50:59.719Z,65.15
2023-05-14T19:53:30.216Z,65.32
2023-05-14T19:55:57.950Z,65.60
2023-05-14T19:58:26.471Z,65.84
2023-05-14T20:00:57.937Z,66.26
2023-05-14T20:03:28.912Z,66.18
2023-05-14T20:05:56.935Z,66.13
2023-05-14T20:08:25.379Z,66.51
2023-05-14T20:10:53.239Z,66.61
2023-05-14T20:13:21.063Z,66.76
2023-05-14T20:15:49.730Z,66.71
2023-05-14T20:18:17.289Z,67.01
2023-05-14T20:20:44.811Z,67.24
2023-05-14T20:23:12.347Z,67.35
2023-05-14T20:25:40.464Z,67.52
2023-05-14T20:28:07.720Z,67.65
2023-05-14T20:30:35.016Z,67.80
2023-05-14T20:33:02.387Z,67.97
2023-05-14T20:35:30.153Z,68.06
2023-05-14T20:37:57.958Z,68.26
2023-05-14T20:40:25.739Z,68.51
2023-05-14T20:42:53.644Z,68.39
2023-05-14T20:45:20.997Z,68.94
2023-05-14T20:47:48.328Z,68.80
2023-05-14T20:50:15.853Z,68.95
2023-05-14T20:52:43.141Z,69.05
2023-05-14T20:55:10.713Z,69.29
2023-05-14T20:57:38.020Z,69.33
2023-05-14T21:00:09.199Z,69.56
2023-05-14T21:02:36.813Z,69.58
2023-05-14T21:05:04.560Z,69.63
2023-05-14T21:07:32.150Z,69.82
2023-05-14T21:09:59.763Z,69.73
2023-05-14T21:12:27.174Z,69.89
2023-05-14T21:14:54.296Z,69.96
2023-05-14T21:17:21.634Z,70.05
2023-05-14T21:19:48.979Z,69.91
2023-05-14T21:22:16.305Z,69.85
2023-05-14T21:24:43.543Z,70.12
2023-05-14T21:27:11.338Z,70.13
2023-05-14T21:29:39.085Z,70.29
2023-05-14T21:32:06.763Z,70.47
2023-05-14T21:34:34.248Z,70.46
2023-05-14T21:37:01.499Z,70.51
2023-05-14T21:39:28.927Z,70.72
2023-05-14T21:41:56.602Z,70.78
2023-05-14T21:44:24.080Z,71.07
2023-05-14T21:46:51.513Z,71.04
2023-05-14T21:49:19.798Z,71.09
2023-05-14T21:51:47.099Z,71.01
2023-05-14T21:54:14.440Z,71.12
2023-05-14T21:56:41.616Z,71.10
2023-05-14T21:59:08.846Z,71.19
2023-05-14T22:01:45.917Z,71.49
2023-05-14T22:04:23.102Z,71.52
2023-05-14T22:06:50.322Z,71.53
2023-05-14T22:09:17.545Z,72.28
2023-05-14T22:11:45.031Z,71.74
2023-05-14T22:14:12.236Z,72.15
2023-05-14T22:16:39.436Z,71.83
2023-05-14T22:19:06.939Z,72.18
2023-05-14T22:21:34.216Z,72.24
2023-05-14T22:24:01.446Z,72.59
2023-05-14T22:26:28.680Z,72.18
2023-05-14T22:28:57.988Z,72.57
2023-05-14T22:31:25.230Z,73.07
2023-05-14T22:33:53.579Z,73.29
2023-05-14T22:36:20.884Z,73.65
2023-05-14T22:38:48.054Z,73.41
2023-05-14T22:41:17.815Z,73.51
2023-05-14T22:43:44.982Z,74.41
2023-05-14T22:46:12.200Z,74.34
2023-05-14T22:48:39.911Z,74.66
2023-05-14T22:51:07.772Z,74.73
2023-05-14T22:53:34.882Z,74.29
2023-05-14T22:56:02.300Z,74.88
2023-05-14T22:58:29.683Z,74.92
2023-05-14T23:00:57.189Z,74.67
2023-05-14T23:03:24.752Z,74.55
2023-05-14T23:05:52.675Z,75.59
2023-05-14T23:08:19.778Z,75.80
2023-05-14T23:10:47.111Z,75.27
2023-05-14T23:13:14.245Z,75.36
2023-05-14T23:15:41.543Z,75.75
2023-05-14T23:18:09.178Z,75.53
2023-05-14T23:20:36.346Z,75.63
2023-05-14T23:23:03.640Z,76.15
2023-05-14T23:25:33.037Z,75.82
2023-05-14T23:28:00.212Z,75.69
2023-05-14T23:30:27.381Z,75.67
2023-05-14T23:32:54.644Z,76.09
2023-05-14T23:35:21.899Z,76.05
2023-05-14T23:37:51.396Z,77.74
2023-05-14T23:40:18.715Z,77.54
2023-05-14T23:42:45.883Z,76.94
2023-05-14T23:45:14.088Z,76.62
2023-05-14T23:47:41.907Z,76.73
2023-05-14T23:50:09.389Z,76.54
2023-05-14T23:52:36.622Z,76.63
2023-05-14T23:55:04.760Z,77.74
2023-05-14T23:57:32.069Z,77.13
2023-05-14T23:59:59.328Z,77.86
